createdAt,value
2022-09-23T00:02:16.837Z,13.06
2022-09-23T00:04:43.397Z,13.02
2022-09-23T00:07:09.740Z,13.00
2022-09-23T00:09:36.050Z,12.96
2022-09-23T00:12:06.879Z,12.93
2022-09-23T00:14:36.121Z,12.91
2022-09-23T00:17:02.557Z,12.88
2022-09-23T00:19:29.528Z,12.85
2022-09-23T00:21:56.681Z,12.83
2022-09-23T00:24:23.656Z,12.80
2022-09-23T00:26:50.066Z,12.80
2022-09-23T00:29:16.618Z,12.78
2022-09-23T00:31:42.957Z,12.77
2022-09-23T00:34:10.500Z,12.77
2022-09-23T00:36:37.139Z,12.79
2022-09-23T00:39:04.512Z,12.81
2022-09-23T00:41:32.047Z,12.83
2022-09-23T00:43:59.652Z,12.87
2022-09-23T00:46:29.051Z,12.88
2022-09-23T00:48:57.958Z,12.87
2022-09-23T00:51:27.205Z,12.86
2022-09-23T00:53:53.553Z,12.83
2022-09-23T00:56:20.972Z,12.80
2022-09-23T00:58:49.305Z,12.78
2022-09-23T01:01:15.864Z,12.77
2022-09-23T01:03:44.355Z,12.74
2022-09-23T01:06:10.964Z,12.71
2022-09-23T01:08:37.547Z,12.68
2022-09-23T01:11:18.884Z,12.65
2022-09-23T01:13:55.692Z,12.62
2022-09-23T01:16:30.819Z,12.59
2022-09-23T01:19:15.225Z,12.56
2022-09-23T01:22:01.139Z,12.52
2022-09-23T01:24:35.791Z,12.48
2022-09-23T01:27:09.843Z,12.42
2022-09-23T01:29:55.125Z,12.37
2022-09-23T01:32:33.590Z,12.32
2022-09-23T01:35:08.934Z,12.28
2022-09-23T01:37:44.293Z,12.28
2022-09-23T01:40:23.226Z,12.23
2022-09-23T01:43:01.765Z,12.21
2022-09-23T01:45:40.361Z,12.17
2022-09-23T01:48:14.662Z,12.18
2022-09-23T01:50:56.706Z,12.16
2022-09-23T01:53:25.821Z,12.13
2022-09-23T01:55:57.161Z,12.13
2022-09-23T01:58:29.133Z,12.09
2022-09-23T02:01:07.103Z,12.04
2022-09-23T02:03:42.102Z,12.02
2022-09-23T02:06:14.774Z,11.98
2022-09-23T02:08:43.912Z,11.97
2022-09-23T02:11:11.701Z,11.95
2022-09-23T02:13:50.035Z,11.94
2022-09-23T02:16:34.418Z,11.93
2022-09-23T02:19:05.529Z,11.90
2022-09-23T02:21:37.043Z,11.88
2022-09-23T02:24:08.991Z,11.85
2022-09-23T02:26:37.385Z,11.83
2022-09-23T02:29:03.691Z,11.84
2022-09-23T02:31:33.588Z,11.85
2022-09-23T02:34:04.765Z,11.87
2022-09-23T02:36:34.923Z,11.89
2022-09-23T02:39:04.722Z,11.93
2022-09-23T02:41:36.404Z,11.94
2022-09-23T02:44:02.732Z,11.95
2022-09-23T02:46:32.673Z,11.97
2022-09-23T02:49:01.297Z,11.97
2022-09-23T02:51:28.836Z,11.99
2022-09-23T02:53:56.366Z,11.97
2022-09-23T02:56:22.906Z,11.97
2022-09-23T02:58:50.050Z,11.97
2022-09-23T03:01:16.410Z,11.96
2022-09-23T03:03:50.351Z,11.95
2022-09-23T03:06:32.621Z,11.92
2022-09-23T03:09:18.877Z,11.89
2022-09-23T03:11:48.447Z,11.84
2022-09-23T03:14:19.738Z,11.80
2022-09-23T03:16:52.006Z,11.74
2022-09-23T03:19:18.369Z,11.69
2022-09-23T03:21:48.975Z,11.64
2022-09-23T03:24:15.470Z,11.59
2022-09-23T03:26:44.561Z,11.57
2022-09-23T03:29:11.561Z,11.55
2022-09-23T03:31:42.651Z,11.55
2022-09-23T03:34:21.379Z,11.55
2022-09-23T03:37:07.932Z,11.55
2022-09-23T03:39:37.460Z,11.55
2022-09-23T03:42:07.633Z,11.58
2022-09-23T03:44:39.581Z,11.58
2022-09-23T03:47:06.398Z,11.60
2022-09-23T03:49:37.191Z,11.64
2022-09-23T03:52:03.718Z,11.66
2022-09-23T03:54:30.294Z,11.69
2022-09-23T03:56:59.685Z,11.72
2022-09-23T03:59:26.563Z,11.71
2022-09-23T04:01:53.044Z,11.72
2022-09-23T04:04:19.635Z,11.76
2022-09-23T04:06:46.079Z,11.76
2022-09-23T04:09:12.527Z,11.78
2022-09-23T04:11:38.897Z,11.77
2022-09-23T04:14:05.575Z,11.78
2022-09-23T04:16:32.137Z,11.79
2022-09-23T04:18:58.720Z,11.77
2022-09-23T04:21:25.353Z,11.79
2022-09-23T04:23:51.689Z,11.82
2022-09-23T04:26:19.044Z,11.84
2022-09-23T04:28:45.367Z,11.83
2022-09-23T04:31:11.809Z,11.85
2022-09-23T04:33:38.400Z,11.82
2022-09-23T04:36:05.155Z,11.75
2022-09-23T04:38:31.481Z,11.69
2022-09-23T04:40:57.822Z,11.63
2022-09-23T04:43:24.244Z,11.59
2022-09-23T04:46:00.479Z,11.55
2022-09-23T04:48:27.353Z,11.50
2022-09-23T04:50:53.737Z,11.45
2022-09-23T04:53:21.142Z,11.43
2022-09-23T04:55:47.440Z,11.40
2022-09-23T04:58:13.774Z,11.41
2022-09-23T05:00:40.174Z,11.43
2022-09-23T05:03:06.912Z,11.45
2022-09-23T05:05:33.442Z,11.47
2022-09-23T05:07:59.768Z,11.50
2022-09-23T05:10:26.120Z,11.53
2022-09-23T05:12:56.943Z,11.55
2022-09-23T05:15:23.648Z,11.55
2022-09-23T05:17:49.955Z,11.55
2022-09-23T05:20:17.110Z,11.56
2022-09-23T05:22:43.443Z,11.56
2022-09-23T05:25:09.817Z,11.55
2022-09-23T05:27:36.549Z,11.55
2022-09-23T05:30:02.904Z,11.54
2022-09-23T05:32:29.226Z,11.57
2022-09-23T05:34:55.719Z,11.59
2022-09-23T05:37:22.475Z,11.63
2022-09-23T05:39:48.853Z,11.66
2022-09-23T05:42:15.639Z,11.69
2022-09-23T05:44:42.064Z,11.74
2022-09-23T05:47:08.510Z,11.78
2022-09-23T05:49:58.131Z,11.82
2022-09-23T05:52:23.378Z,11.84
2022-09-23T05:54:49.845Z,11.88
2022-09-23T05:57:16.151Z,11.92
2022-09-23T05:59:47.309Z,11.93
2022-09-23T06:02:14.656Z,11.98
2022-09-23T06:04:41.101Z,12.00
2022-09-23T06:07:07.451Z,12.06
2022-09-23T06:09:36.582Z,12.07
2022-09-23T06:12:03.809Z,12.12
2022-09-23T06:14:30.140Z,12.13
2022-09-23T06:16:56.497Z,12.18
2022-09-23T06:19:22.901Z,12.23
2022-09-23T06:21:49.570Z,12.27
2022-09-23T06:24:19.966Z,12.31
2022-09-23T06:26:48.046Z,12.34
2022-09-23T06:29:14.559Z,12.39
2022-09-23T06:31:41.878Z,12.43
2022-09-23T06:34:13.722Z,12.51
2022-09-23T06:36:44.370Z,12.54
2022-09-23T06:39:11.738Z,12.58
2022-09-23T06:41:39.172Z,12.61
2022-09-23T06:44:05.726Z,12.66
2022-09-23T06:46:32.211Z,12.70
2022-09-23T06:48:59.137Z,12.74
2022-09-23T06:51:25.471Z,12.78
2022-09-23T06:53:52.611Z,12.79
2022-09-23T06:56:21.008Z,12.84
2022-09-23T06:58:47.454Z,12.87
2022-09-23T07:01:18.277Z,12.89
2022-09-23T07:03:45.900Z,12.94
2022-09-23T07:06:12.314Z,13.00
2022-09-23T07:08:40.337Z,13.03
2022-09-23T07:11:07.015Z,13.07
2022-09-23T07:13:33.755Z,13.15
2022-09-23T07:16:01.818Z,13.22
2022-09-23T07:18:34.281Z,13.27
2022-09-23T07:21:07.101Z,13.33
2022-09-23T07:23:33.547Z,13.42
2022-09-23T07:26:00.518Z,13.48
2022-09-23T07:28:29.127Z,13.54
2022-09-23T07:31:00.361Z,13.60
2022-09-23T07:33:32.460Z,13.66
2022-09-23T07:36:06.413Z,13.76
2022-09-23T07:38:32.777Z,13.91
2022-09-23T07:41:06.426Z,14.01
2022-09-23T07:43:32.994Z,14.16
2022-09-23T07:46:04.376Z,14.26
2022-09-23T07:48:34.329Z,14.38
2022-09-23T07:51:05.705Z,14.46
2022-09-23T07:53:32.362Z,14.62
2022-09-23T07:55:59.370Z,14.71
2022-09-23T07:58:25.870Z,14.80
2022-09-23T08:00:54.011Z,14.88
2022-09-23T08:03:21.200Z,15.05
2022-09-23T08:05:47.592Z,15.19
2022-09-23T08:08:14.084Z,15.24
2022-09-23T08:10:40.430Z,15.38
2022-09-23T08:13:06.850Z,15.49
2022-09-23T08:15:33.557Z,15.66
2022-09-23T08:18:00.404Z,15.80
2022-09-23T08:20:47.439Z,15.98
2022-09-23T08:23:15.432Z,16.15
2022-09-23T08:25:44.398Z,16.27
2022-09-23T08:28:12.744Z,16.32
2022-09-23T08:30:39.614Z,16.49
2022-09-23T08:33:06.020Z,16.63
2022-09-23T08:35:32.377Z,16.82
2022-09-23T08:37:58.715Z,17.03
2022-09-23T08:40:25.213Z,17.18
2022-09-23T08:42:51.558Z,17.43
2022-09-23T08:45:20.531Z,17.74
2022-09-23T08:47:47.049Z,18.00
2022-09-23T08:50:16.643Z,18.27
2022-09-23T08:52:50.037Z,18.51
2022-09-23T08:55:17.033Z,18.55
2022-09-23T08:58:02.231Z,18.63
2022-09-23T09:00:33.318Z,18.63
2022-09-23T09:03:00.001Z,18.71
2022-09-23T09:05:27.505Z,18.78
2022-09-23T09:07:57.478Z,18.86
2022-09-23T09:10:25.712Z,19.01
2022-09-23T09:13:00.224Z,19.14
2022-09-23T09:15:27.898Z,19.37
2022-09-23T09:18:13.194Z,19.51
2022-09-23T09:20:59.494Z,19.61
2022-09-23T09:23:35.047Z,19.68
2022-09-23T09:26:02.726Z,19.88
2022-09-23T09:28:38.761Z,19.99
2022-09-23T09:31:21.998Z,20.01
2022-09-23T09:33:48.395Z,20.05
2022-09-23T09:36:18.934Z,20.01
2022-09-23T09:38:45.599Z,20.02
2022-09-23T09:41:13.982Z,19.97
2022-09-23T09:43:44.037Z,20.01
2022-09-23T09:46:29.207Z,20.07
2022-09-23T09:48:59.773Z,19.95
2022-09-23T09:51:27.727Z,20.11
2022-09-23T09:53:55.894Z,20.19
2022-09-23T09:56:31.581Z,20.26
2022-09-23T09:59:06.758Z,20.38
2022-09-23T10:01:33.851Z,20.41
2022-09-23T10:04:19.641Z,20.59
2022-09-23T10:07:03.850Z,20.63
2022-09-23T10:09:35.066Z,20.77
2022-09-23T10:12:04.541Z,20.84
2022-09-23T10:14:31.435Z,20.89
2022-09-23T10:17:05.425Z,20.94
2022-09-23T10:19:32.630Z,20.99
2022-09-23T10:22:04.726Z,20.97
2022-09-23T10:24:32.537Z,20.98
2022-09-23T10:27:04.398Z,21.01
2022-09-23T10:29:30.730Z,21.13
2022-09-23T10:32:20.449Z,21.30
2022-09-23T10:34:50.392Z,21.50
2022-09-23T10:37:20.211Z,21.63
2022-09-23T10:40:05.091Z,21.67
2022-09-23T10:42:56.038Z,21.70
2022-09-23T10:45:46.293Z,21.67
2022-09-23T10:48:18.586Z,21.75
2022-09-23T10:50:49.222Z,21.67
2022-09-23T10:53:41.996Z,21.65
2022-09-23T10:56:15.832Z,21.55
2022-09-23T10:58:42.118Z,21.47
2022-09-23T11:01:08.523Z,21.47
2022-09-23T11:03:35.037Z,21.45
2022-09-23T11:06:01.447Z,21.45
2022-09-23T11:08:33.774Z,21.45
2022-09-23T11:11:11.508Z,21.50
2022-09-23T11:13:56.981Z,21.50
2022-09-23T11:16:41.025Z,21.42
2022-09-23T11:19:21.490Z,21.31
2022-09-23T11:21:47.823Z,21.07
2022-09-23T11:24:32.762Z,20.94
2022-09-23T11:27:06.396Z,20.89
2022-09-23T11:29:51.359Z,20.93
2022-09-23T11:32:30.778Z,20.87
2022-09-23T11:35:06.268Z,20.79
2022-09-23T11:37:38.279Z,20.79
2022-09-23T11:40:17.569Z,20.67
2022-09-23T11:42:52.326Z,20.67
2022-09-23T11:45:23.308Z,20.55
2022-09-23T11:47:56.683Z,20.45
2022-09-23T11:50:37.582Z,20.33
2022-09-23T11:53:08.846Z,20.29
2022-09-23T11:55:57.538Z,20.24
2022-09-23T11:58:47.099Z,20.25
2022-09-23T12:01:36.338Z,20.25
2022-09-23T12:04:19.919Z,20.28
2022-09-23T12:06:50.005Z,20.24
2022-09-23T12:09:47.246Z,20.30
2022-09-23T12:12:17.290Z,20.29
2022-09-23T12:14:53.727Z,20.19
2022-09-23T12:17:20.042Z,20.11
2022-09-23T12:20:01.910Z,20.08
2022-09-23T12:22:28.268Z,20.14
2022-09-23T12:25:06.867Z,20.22
2022-09-23T12:27:39.018Z,20.26
2022-09-23T12:30:12.607Z,20.34
2022-09-23T12:32:39.431Z,20.41
2022-09-23T12:35:07.686Z,20.52
2022-09-23T12:37:34.410Z,20.53
2022-09-23T12:40:20.574Z,20.56
2022-09-23T12:42:47.667Z,20.56
2022-09-23T12:45:23.150Z,20.65
2022-09-23T12:47:49.578Z,20.73
2022-09-23T12:50:34.882Z,20.77
2022-09-23T12:53:21.290Z,20.71
2022-09-23T12:55:51.516Z,20.63
2022-09-23T12:58:36.445Z,20.48
2022-09-23T13:01:07.088Z,20.46
2022-09-23T13:03:52.287Z,20.45
2022-09-23T13:06:37.363Z,20.44
2022-09-23T13:09:06.606Z,20.39
2022-09-23T13:11:33.139Z,20.36
2022-09-23T13:14:01.873Z,20.31
2022-09-23T13:16:36.891Z,20.42
2022-09-23T13:19:04.368Z,20.41
2022-09-23T13:21:42.716Z,20.44
2022-09-23T13:24:19.743Z,20.51
2022-09-23T13:26:50.165Z,20.54
2022-09-23T13:29:27.412Z,20.55
2022-09-23T13:31:59.923Z,20.52
2022-09-23T13:34:28.832Z,20.44
2022-09-23T13:36:55.138Z,20.43
2022-09-23T13:39:25.381Z,20.41
2022-09-23T13:41:57.634Z,20.45
2022-09-23T13:44:24.018Z,20.45
2022-09-23T13:46:53.558Z,20.51
2022-09-23T13:49:36.214Z,20.38
2022-09-23T13:52:03.184Z,20.43
2022-09-23T13:54:48.664Z,20.45
2022-09-23T13:57:34.411Z,20.53
2022-09-23T14:00:01.688Z,20.56
2022-09-23T14:02:28.620Z,20.52
2022-09-23T14:04:58.767Z,20.54
2022-09-23T14:07:25.273Z,20.52
2022-09-23T14:09:54.190Z,20.54
2022-09-23T14:12:22.259Z,20.56
2022-09-23T14:14:50.486Z,20.51
2022-09-23T14:17:22.693Z,20.54
2022-09-23T14:19:50.188Z,20.53
2022-09-23T14:22:27.208Z,20.50
2022-09-23T14:24:54.423Z,20.51
2022-09-23T14:27:27.319Z,20.50
2022-09-23T14:29:54.180Z,20.50
2022-09-23T14:32:23.301Z,20.54
2022-09-23T14:34:49.906Z,20.53
2022-09-23T14:37:40.751Z,20.50
2022-09-23T14:40:33.414Z,20.53
2022-09-23T14:43:16.100Z,20.51
2022-09-23T14:45:44.850Z,20.46
2022-09-23T14:48:16.269Z,20.47
2022-09-23T14:50:50.430Z,20.45
2022-09-23T14:53:19.732Z,20.41
2022-09-23T14:55:52.663Z,20.37
2022-09-23T14:58:27.948Z,20.34
2022-09-23T15:00:59.471Z,20.25
2022-09-23T15:03:29.775Z,20.27
2022-09-23T15:05:58.095Z,20.24
2022-09-23T15:08:27.086Z,20.20
2022-09-23T15:10:53.813Z,20.18
2022-09-23T15:13:33.432Z,20.21
2022-09-23T15:16:01.736Z,20.18
2022-09-23T15:18:30.122Z,20.18
2022-09-23T15:21:07.442Z,20.19
2022-09-23T15:23:36.918Z,20.20
2022-09-23T15:26:08.657Z,20.18
2022-09-23T15:28:34.976Z,20.18
2022-09-23T15:31:01.346Z,20.07
2022-09-23T15:33:30.712Z,20.11
2022-09-23T15:35:57.411Z,20.05
2022-09-23T15:38:24.306Z,20.03
2022-09-23T15:40:50.700Z,20.02
2022-09-23T15:43:22.578Z,19.98
2022-09-23T15:45:52.099Z,19.99
2022-09-23T15:48:27.537Z,19.94
2022-09-23T15:50:54.491Z,19.87
2022-09-23T15:53:26.016Z,19.86
2022-09-23T15:55:52.965Z,19.89
2022-09-23T15:58:20.428Z,19.86
2022-09-23T16:00:51.132Z,19.86
2022-09-23T16:03:23.605Z,19.88
2022-09-23T16:05:50.220Z,19.83
2022-09-23T16:08:19.578Z,19.79
2022-09-23T16:10:46.926Z,19.78
2022-09-23T16:13:13.921Z,19.76
2022-09-23T16:15:40.697Z,19.70
2022-09-23T16:18:07.380Z,19.66
2022-09-23T16:20:35.024Z,19.61
2022-09-23T16:23:06.482Z,19.58
2022-09-23T16:25:33.929Z,19.53
2022-09-23T16:28:00.380Z,19.47
2022-09-23T16:30:28.232Z,19.44
2022-09-23T16:32:54.850Z,19.43
2022-09-23T16:35:21.899Z,19.39
2022-09-23T16:37:48.463Z,19.36
2022-09-23T16:40:16.626Z,19.32
2022-09-23T16:42:44.199Z,19.29
2022-09-23T16:45:11.076Z,19.24
2022-09-23T16:47:44.176Z,19.17
2022-09-23T16:50:11.597Z,19.12
2022-09-23T16:52:38.096Z,19.09
2022-09-23T16:55:04.744Z,19.06
2022-09-23T16:57:31.345Z,19.04
2022-09-23T17:00:16.570Z,19.01
2022-09-23T17:03:01.417Z,18.98
2022-09-23T17:05:27.790Z,18.91
2022-09-23T17:07:54.745Z,18.85
2022-09-23T17:10:21.387Z,18.79
2022-09-23T17:12:47.760Z,18.74
2022-09-23T17:15:14.119Z,18.64
2022-09-23T17:17:40.451Z,18.52
2022-09-23T17:20:06.971Z,18.43
2022-09-23T17:22:33.540Z,18.35
2022-09-23T17:25:02.110Z,18.27
2022-09-23T17:27:28.696Z,18.24
2022-09-23T17:29:55.493Z,18.22
2022-09-23T17:32:21.805Z,18.18
2022-09-23T17:34:48.100Z,18.07
2022-09-23T17:37:14.409Z,17.99
2022-09-23T17:39:41.614Z,17.96
2022-09-23T17:42:08.518Z,17.86
2022-09-23T17:44:36.135Z,17.81
2022-09-23T17:47:03.577Z,17.75
2022-09-23T17:49:35.275Z,17.68
2022-09-23T17:52:05.607Z,17.60
2022-09-23T17:54:32.952Z,17.56
2022-09-23T17:56:59.797Z,17.52
2022-09-23T17:59:26.592Z,17.49
2022-09-23T18:01:53.558Z,17.49
2022-09-23T18:04:20.246Z,17.45
2022-09-23T18:06:47.257Z,17.41
2022-09-23T18:09:13.976Z,17.41
2022-09-23T18:11:42.377Z,17.40
2022-09-23T18:14:18.434Z,17.41
2022-09-23T18:16:46.088Z,17.39
2022-09-23T18:19:13.952Z,17.40
2022-09-23T18:21:42.056Z,17.40
2022-09-23T18:26:59.429Z,17.39
2022-09-23T18:29:25.945Z,17.39
2022-09-23T18:31:52.360Z,17.36
2022-09-23T18:34:20.115Z,17.35
2022-09-23T18:36:46.580Z,17.32
2022-09-23T18:39:12.942Z,17.31
2022-09-23T18:41:39.590Z,17.31
2022-09-23T18:44:06.026Z,17.28
2022-09-23T18:46:32.420Z,17.25
2022-09-23T18:49:17.937Z,17.23
2022-09-23T18:52:02.476Z,17.22
2022-09-23T18:54:28.933Z,17.24
2022-09-23T18:56:55.649Z,17.20
2022-09-23T18:59:24.565Z,17.17
2022-09-23T19:01:51.547Z,17.15
2022-09-23T19:04:18.944Z,17.13
2022-09-23T19:06:45.795Z,17.12
2022-09-23T19:09:12.846Z,17.10
2022-09-23T19:11:39.595Z,17.11
2022-09-23T19:14:07.574Z,17.09
2022-09-23T19:16:35.198Z,17.06
2022-09-23T19:19:02.150Z,17.01
2022-09-23T19:21:28.934Z,16.98
2022-09-23T19:23:56.241Z,16.98
2022-09-23T19:26:24.619Z,16.98
2022-09-23T19:28:52.454Z,16.97
2022-09-23T19:31:22.203Z,16.95
2022-09-23T19:33:59.138Z,16.91
2022-09-23T19:36:30.031Z,16.85
2022-09-23T19:38:57.759Z,16.84
2022-09-23T19:41:24.906Z,16.79
2022-09-23T19:43:54.888Z,16.75
2022-09-23T19:46:22.247Z,16.75
2022-09-23T19:48:48.665Z,16.74
2022-09-23T19:51:15.821Z,16.75
2022-09-23T19:53:43.047Z,16.71
2022-09-23T19:56:09.446Z,16.72
2022-09-23T19:58:35.813Z,16.69
2022-09-23T20:01:07.109Z,16.69
2022-09-23T20:03:33.582Z,16.66
2022-09-23T20:06:00.362Z,16.61
2022-09-23T20:08:27.261Z,16.62
2022-09-23T20:10:53.562Z,16.60
2022-09-23T20:13:20.220Z,16.58
2022-09-23T20:15:48.193Z,16.54
2022-09-23T20:18:14.780Z,16.55
2022-09-23T20:20:41.102Z,16.53
2022-09-23T20:23:07.433Z,16.57
2022-09-23T20:25:53.987Z,16.57
2022-09-23T20:28:21.176Z,16.52
2022-09-23T20:30:52.113Z,16.53
2022-09-23T20:33:22.194Z,16.54
2022-09-23T20:35:50.815Z,16.53
2022-09-23T20:38:17.129Z,16.53
2022-09-23T20:40:43.574Z,16.51
2022-09-23T20:43:10.359Z,16.55
2022-09-23T20:45:39.622Z,16.59
2022-09-23T20:48:11.165Z,16.56
2022-09-23T20:50:38.767Z,16.55
2022-09-23T20:53:05.337Z,16.58
2022-09-23T20:55:31.885Z,16.58
2022-09-23T20:57:59.813Z,16.59
2022-09-23T21:00:27.208Z,16.58
2022-09-23T21:02:53.669Z,16.59
2022-09-23T21:05:21.173Z,16.58
2022-09-23T21:07:48.179Z,16.57
2022-09-23T21:10:14.619Z,16.56
2022-09-23T21:12:41.328Z,16.58
2022-09-23T21:15:07.832Z,16.59
2022-09-23T21:17:34.262Z,16.57
2022-09-23T21:20:01.346Z,16.58
2022-09-23T21:22:27.687Z,16.56
2022-09-23T21:25:26.284Z,16.54
2022-09-23T21:27:41.926Z,16.54
2022-09-23T21:30:09.249Z,16.57
2022-09-23T21:32:35.634Z,16.57
2022-09-23T21:35:02.480Z,16.55
2022-09-23T21:37:29.171Z,16.53
2022-09-23T21:40:14.265Z,16.55
2022-09-23T21:42:41.957Z,16.54
2022-09-23T21:45:09.033Z,16.53
2022-09-23T21:47:36.075Z,16.54
2022-09-23T21:50:02.803Z,16.52
2022-09-23T21:52:29.324Z,16.54
2022-09-23T21:54:55.894Z,16.58
2022-09-23T21:57:25.776Z,16.57
2022-09-23T21:59:54.083Z,16.59
2022-09-23T22:02:20.741Z,16.61
2022-09-23T22:04:47.414Z,16.61
2022-09-23T22:07:14.060Z,16.62
2022-09-23T22:09:40.794Z,16.60
2022-09-23T22:12:12.583Z,16.61
2022-09-23T22:14:39.527Z,16.60
2022-09-23T22:17:07.549Z,16.63
2022-09-23T22:19:35.875Z,16.62
2022-09-23T22:22:06.205Z,16.61
2022-09-23T22:24:33.064Z,16.63
2022-09-23T22:26:59.667Z,16.63
2022-09-23T22:29:46.413Z,16.62
2022-09-23T22:32:32.186Z,16.62
2022-09-23T22:34:59.568Z,16.62
2022-09-23T22:37:30.174Z,16.63
2022-09-23T22:39:57.301Z,16.64
2022-09-23T22:42:24.008Z,16.62
2022-09-23T22:44:51.494Z,16.63
2022-09-23T22:47:19.729Z,16.62
2022-09-23T22:49:46.381Z,16.57
2022-09-23T22:52:14.897Z,16.55
2022-09-23T22:54:41.872Z,16.57
2022-09-23T22:57:09.058Z,16.57
2022-09-23T22:59:36.033Z,16.57
2022-09-23T23:02:03.044Z,16.56
2022-09-23T23:04:30.272Z,16.55
2022-09-23T23:06:58.449Z,16.54
2022-09-23T23:09:24.902Z,16.53
2022-09-23T23:11:51.684Z,16.55
2022-09-23T23:14:18.697Z,16.55
2022-09-23T23:16:46.159Z,16.56
2022-09-23T23:19:14.685Z,16.53
2022-09-23T23:21:43.299Z,16.51
2022-09-23T23:24:14.149Z,16.51
2022-09-23T23:26:40.463Z,16.50
2022-09-23T23:29:06.780Z,16.50
2022-09-23T23:31:33.553Z,16.50
2022-09-23T23:34:00.050Z,16.49
2022-09-23T23:36:26.468Z,16.47
2022-09-23T23:38:53.105Z,16.49
2022-09-23T23:41:21.852Z,16.49
2022-09-23T23:43:52.781Z,16.47
2022-09-23T23:46:19.522Z,16.43
2022-09-23T23:48:48.034Z,16.43
2022-09-23T23:51:15.252Z,16.44
2022-09-23T23:53:42.266Z,16.45
2022-09-23T23:56:09.964Z,16.44
2022-09-23T23:58:36.430Z,16.42
